Time;durP1;ratioP1;P1;durP2;ratioP2;P2;SDS_P1;SDS_P2;PMS_P1;PMS_P2;Temp;Humidity;BMP_temperature;BMP_pressure;BME280_temperature;BME280_humidity;BME280_pressure;Samples;Min_cycle;Max_cycle;Signal;HPM_P1;HPM_P2
2022/10/13 00:02:12;;;;;;;;;;;10.50;99.90;;;;;;5103105;28;19928;-75
2022/10/13 00:04:37;;;;;;;;;;;10.50;99.90;;;;;;5086184;28;20007;-76
2022/10/13 00:07:03;;;;;;;;;;;10.50;99.90;;;;;;5069768;28;19928;-76
2022/10/13 00:09:29;;;;;;;;;;;10.50;99.90;;;;;;5102771;28;19924;-76
2022/10/13 00:11:57;;;;;;;;;;;10.60;99.90;;;;;;5070026;28;19935;-75
2022/10/13 00:14:23;;;;;;;;;;;10.50;99.90;;;;;;5086425;28;19935;-75
2022/10/13 00:16:48;;;;;;;;;;;10.60;99.90;;;;;;5068626;28;19924;-75
2022/10/13 00:19:14;;;;;;;;;;;10.50;99.90;;;;;;5069511;28;20023;-75
2022/10/13 00:21:39;;;;;;;;;;;10.60;99.90;;;;;;5107101;28;19924;-75
2022/10/13 00:24:08;;;;;;;;;;;10.60;99.90;;;;;;5074763;28;20008;-75
2022/10/13 00:26:33;;;;;;;;;;;10.60;99.90;;;;;;5061669;28;19924;-75
2022/10/13 00:28:59;;;;;;;;;;;10.60;99.90;;;;;;5083641;28;20360;-75
2022/10/13 00:31:28;;;;;;;;;;;10.60;99.90;;;;;;5068980;28;19928;-75
2022/10/13 00:33:54;;;;;;;;;;;10.60;99.90;;;;;;5069547;28;19924;-75
2022/10/13 00:36:21;;;;;;;;;;;10.60;99.90;;;;;;5081158;28;20364;-75
2022/10/13 00:38:47;;;;;;;;;;;10.60;99.90;;;;;;5080504;28;19974;-76
2022/10/13 00:41:13;;;;;;;;;;;10.60;99.90;;;;;;5083417;28;19976;-79
2022/10/13 00:43:57;;;;;;;;;;;10.60;99.90;;;;;;5070701;28;19925;-75
2022/10/13 00:46:24;;;;;;;;;;;10.70;99.90;;;;;;5086751;28;19958;-75
2022/10/13 00:48:49;;;;;;;;;;;10.70;99.90;;;;;;5072871;28;19924;-75
2022/10/13 00:51:16;;;;;;;;;;;10.70;99.90;;;;;;5065803;28;19928;-75
2022/10/13 00:53:42;;;;;;;;;;;10.70;99.90;;;;;;5077710;28;20019;-75
2022/10/13 00:56:10;;;;;;;;;;;10.70;99.90;;;;;;5115747;27;20015;-75
2022/10/13 00:58:36;;;;;;;;;;;10.70;99.90;;;;;;5086958;28;19928;-75
2022/10/13 01:01:02;;;;;;;;;;;10.70;99.90;;;;;;5080780;28;19955;-75
2022/10/13 01:03:28;;;;;;;;;;;10.70;99.90;;;;;;5120981;27;20004;-74
2022/10/13 01:05:55;;;;;;;;;;;10.80;99.90;;;;;;5086675;28;20345;-75
2022/10/13 01:08:21;;;;;;;;;;;10.70;99.90;;;;;;5073188;28;19970;-75
2022/10/13 01:11:06;;;;;;;;;;;10.70;99.90;;;;;;5103783;28;19931;-75
2022/10/13 01:13:45;;;;;;;;;;;10.70;99.90;;;;;;5068433;28;20016;-76
2022/10/13 01:16:21;;;;;;;;;;;10.70;99.90;;;;;;5077899;28;19924;-76
2022/10/13 01:18:54;;;;;;;;;;;10.70;99.90;;;;;;5084368;28;19924;-75
2022/10/13 01:21:35;;;;;;;;;;;10.70;99.90;;;;;;5061820;28;19986;-75
2022/10/13 01:24:08;;;;;;;;;;;10.70;99.90;;;;;;5073108;28;20054;-75
2022/10/13 01:27:00;;;;;;;;;;;10.70;99.90;;;;;;5099754;28;19993;-76
2022/10/13 01:29:28;;;;;;;;;;;10.70;99.90;;;;;;5058260;28;19990;-75
2022/10/13 01:31:54;;;;;;;;;;;10.70;99.90;;;;;;5085139;28;19938;-75
2022/10/13 01:34:22;;;;;;;;;;;10.70;99.90;;;;;;5098533;28;20023;-75
2022/10/13 01:36:52;;;;;;;;;;;10.70;99.90;;;;;;5116360;27;20300;-76
2022/10/13 01:39:33;;;;;;;;;;;10.80;99.90;;;;;;5085759;28;20415;-75
2022/10/13 01:42:10;;;;;;;;;;;10.80;99.90;;;;;;5110240;27;20016;-75
2022/10/13 01:44:38;;;;;;;;;;;10.80;99.90;;;;;;5066535;28;19932;-76
2022/10/13 01:47:04;;;;;;;;;;;10.80;99.90;;;;;;5069100;28;20045;-81
2022/10/13 01:49:33;;;;;;;;;;;10.80;99.90;;;;;;5061704;28;20737;-76
2022/10/13 01:52:00;;;;;;;;;;;10.80;99.90;;;;;;5060246;28;19925;-76
2022/10/13 01:54:26;;;;;;;;;;;10.80;99.90;;;;;;5073470;28;19928;-78
2022/10/13 01:56:52;;;;;;;;;;;10.90;99.90;;;;;;5108415;28;19924;-76
2022/10/13 01:59:18;;;;;;;;;;;10.80;99.90;;;;;;5109211;27;20411;-75
2022/10/13 02:01:51;;;;;;;;;;;10.80;99.90;;;;;;5070868;28;19931;-75
2022/10/13 02:04:16;;;;;;;;;;;10.80;99.90;;;;;;5105380;28;20399;-76
2022/10/13 02:06:42;;;;;;;;;;;10.80;99.90;;;;;;5086379;28;19924;-76
2022/10/13 02:09:11;;;;;;;;;;;10.80;99.90;;;;;;5070004;28;19928;-77
2022/10/13 02:11:38;;;;;;;;;;;10.80;99.90;;;;;;5054848;28;19967;-76
2022/10/13 02:14:08;;;;;;;;;;;10.80;99.90;;;;;;5078789;28;19924;-76
2022/10/13 02:16:35;;;;;;;;;;;10.70;99.90;;;;;;5111022;27;19968;-76
2022/10/13 02:19:03;;;;;;;;;;;10.70;99.90;;;;;;5070568;28;19931;-76
2022/10/13 02:21:29;;;;;;;;;;;10.70;99.90;;;;;;5069404;28;19924;-76
2022/10/13 02:23:55;;;;;;;;;;;10.70;99.90;;;;;;5116331;27;20042;-76
2022/10/13 02:26:21;;;;;;;;;;;10.70;99.90;;;;;;5091354;28;20357;-76
2022/10/13 02:28:46;;;;;;;;;;;10.70;99.90;;;;;;5118644;27;19967;-76
2022/10/13 02:31:12;;;;;;;;;;;10.60;99.90;;;;;;5072909;28;19939;-76
2022/10/13 02:33:38;;;;;;;;;;;10.60;99.90;;;;;;5083136;28;19964;-76
2022/10/13 02:36:03;;;;;;;;;;;10.60;99.90;;;;;;5050322;28;19925;-76
2022/10/13 02:38:29;;;;;;;;;;;10.60;99.90;;;;;;5111573;27;19967;-76
2022/10/13 02:40:55;;;;;;;;;;;10.70;99.90;;;;;;5072613;28;20283;-76
2022/10/13 02:43:20;;;;;;;;;;;10.60;99.90;;;;;;5073698;28;19931;-76
2022/10/13 02:45:46;;;;;;;;;;;10.60;99.90;;;;;;5087020;28;19963;-76
2022/10/13 02:48:11;;;;;;;;;;;10.60;99.90;;;;;;5077558;28;19924;-76
2022/10/13 02:50:37;;;;;;;;;;;10.60;99.90;;;;;;5090566;28;20646;-76
2022/10/13 02:53:03;;;;;;;;;;;10.60;99.90;;;;;;5086255;28;19924;-76
2022/10/13 02:55:28;;;;;;;;;;;10.60;99.90;;;;;;5074488;28;20410;-76
2022/10/13 02:57:54;;;;;;;;;;;10.60;99.90;;;;;;5083921;28;19924;-76
2022/10/13 03:00:19;;;;;;;;;;;10.60;99.90;;;;;;5085319;28;19971;-76
2022/10/13 03:02:45;;;;;;;;;;;10.60;99.90;;;;;;5099373;28;19928;-76
2022/10/13 03:05:11;;;;;;;;;;;10.60;99.90;;;;;;5081488;28;19924;-76
2022/10/13 03:07:36;;;;;;;;;;;10.60;99.90;;;;;;5058309;28;19932;-76
2022/10/13 03:10:03;;;;;;;;;;;10.60;99.90;;;;;;5075914;28;19924;-75
2022/10/13 03:12:29;;;;;;;;;;;10.60;99.90;;;;;;5081802;28;20346;-76
2022/10/13 03:14:55;;;;;;;;;;;10.60;99.90;;;;;;5073614;28;20019;-75
2022/10/13 03:17:20;;;;;;;;;;;10.60;99.90;;;;;;5090911;28;19947;-80
2022/10/13 03:19:46;;;;;;;;;;;10.70;99.90;;;;;;5109281;27;19924;-77
2022/10/13 03:22:14;;;;;;;;;;;10.70;99.90;;;;;;5114787;27;19931;-77
2022/10/13 03:24:40;;;;;;;;;;;10.60;99.90;;;;;;5067898;28;19929;-75
2022/10/13 03:27:06;;;;;;;;;;;10.60;99.90;;;;;;5103516;28;19924;-75
2022/10/13 03:29:31;;;;;;;;;;;10.60;99.90;;;;;;5086450;28;19978;-76
2022/10/13 03:31:57;;;;;;;;;;;10.60;99.90;;;;;;5069422;28;19924;-75
2022/10/13 03:34:22;;;;;;;;;;;10.60;99.90;;;;;;5103286;28;20020;-79
2022/10/13 03:36:48;;;;;;;;;;;10.60;99.90;;;;;;5101489;28;20373;-77
2022/10/13 03:39:13;;;;;;;;;;;10.60;99.90;;;;;;5069645;28;19924;-76
2022/10/13 03:41:39;;;;;;;;;;;10.60;99.90;;;;;;5086048;28;19925;-76
2022/10/13 03:44:06;;;;;;;;;;;10.60;99.90;;;;;;5070169;28;19990;-77
2022/10/13 03:46:32;;;;;;;;;;;10.50;99.90;;;;;;5086126;28;19947;-75
2022/10/13 03:48:57;;;;;;;;;;;10.50;99.90;;;;;;5070077;28;20388;-81
2022/10/13 03:51:23;;;;;;;;;;;10.50;99.90;;;;;;5102575;28;19954;-75
2022/10/13 03:53:49;;;;;;;;;;;10.60;99.90;;;;;;5070370;28;19924;-75
2022/10/13 03:56:17;;;;;;;;;;;10.60;99.90;;;;;;5084444;28;19968;-76
2022/10/13 03:58:43;;;;;;;;;;;10.60;99.90;;;;;;5069572;28;19935;-76
2022/10/13 04:01:09;;;;;;;;;;;10.60;99.90;;;;;;5069671;28;20300;-77
2022/10/13 04:03:35;;;;;;;;;;;10.60;99.90;;;;;;5060230;28;19935;-76
2022/10/13 04:06:01;;;;;;;;;;;10.60;99.90;;;;;;5085177;28;19924;-76
2022/10/13 04:08:27;;;;;;;;;;;10.60;99.90;;;;;;5085941;28;19933;-81
2022/10/13 04:11:00;;;;;;;;;;;10.70;99.90;;;;;;5069606;28;19977;-76
2022/10/13 04:13:26;;;;;;;;;;;10.70;99.90;;;;;;5069090;28;19931;-77
2022/10/13 04:15:51;;;;;;;;;;;10.70;99.90;;;;;;5099751;28;20287;-76
2022/10/13 04:18:17;;;;;;;;;;;10.70;99.90;;;;;;5069484;28;19928;-76
2022/10/13 04:20:42;;;;;;;;;;;10.70;99.90;;;;;;5072399;28;19929;-78
2022/10/13 04:23:08;;;;;;;;;;;10.70;99.90;;;;;;5084483;28;19950;-76
2022/10/13 04:25:35;;;;;;;;;;;10.70;99.90;;;;;;5075095;28;19931;-75
2022/10/13 04:28:01;;;;;;;;;;;10.70;99.90;;;;;;5073732;28;20363;-76
2022/10/13 04:30:26;;;;;;;;;;;10.70;99.90;;;;;;5087349;28;19924;-76
2022/10/13 04:32:52;;;;;;;;;;;10.70;99.90;;;;;;5075910;28;19963;-76
2022/10/13 04:35:17;;;;;;;;;;;10.70;99.90;;;;;;5098465;28;20364;-77
2022/10/13 04:37:43;;;;;;;;;;;10.70;99.90;;;;;;5087814;28;19931;-81
2022/10/13 04:40:08;;;;;;;;;;;10.70;99.90;;;;;;5077797;28;19931;-77
2022/10/13 04:42:34;;;;;;;;;;;10.70;99.90;;;;;;5076170;28;19924;-76
2022/10/13 04:44:59;;;;;;;;;;;10.70;99.90;;;;;;5109189;28;19930;-76
2022/10/13 04:47:25;;;;;;;;;;;10.70;99.90;;;;;;5113985;27;19932;-76
2022/10/13 04:49:51;;;;;;;;;;;10.80;99.90;;;;;;5081826;28;19928;-76
2022/10/13 04:52:16;;;;;;;;;;;10.70;99.90;;;;;;5066981;28;20004;-77
2022/10/13 04:54:42;;;;;;;;;;;10.70;99.90;;;;;;5084279;28;19928;-76
2022/10/13 04:57:07;;;;;;;;;;;10.70;99.90;;;;;;5088718;28;19935;-77
2022/10/13 04:59:33;;;;;;;;;;;10.70;99.90;;;;;;5088386;28;19924;-81
2022/10/13 05:01:58;;;;;;;;;;;10.70;99.90;;;;;;5092666;28;19924;-76
2022/10/13 05:04:24;;;;;;;;;;;10.70;99.90;;;;;;5089937;28;19970;-76
2022/10/13 05:06:49;;;;;;;;;;;10.70;99.90;;;;;;5115951;27;19935;-77
2022/10/13 05:09:15;;;;;;;;;;;10.80;99.90;;;;;;5079505;28;19954;-76
2022/10/13 05:11:40;;;;;;;;;;;10.70;99.90;;;;;;5102192;28;20014;-76
2022/10/13 05:14:06;;;;;;;;;;;10.70;99.90;;;;;;5085527;28;20283;-76
2022/10/13 05:16:32;;;;;;;;;;;10.70;99.90;;;;;;5107607;27;19974;-76
2022/10/13 05:18:57;;;;;;;;;;;10.80;99.90;;;;;;5088934;28;19985;-77
2022/10/13 05:21:24;;;;;;;;;;;10.80;99.90;;;;;;5061849;28;19924;-77
2022/10/13 05:23:54;;;;;;;;;;;10.80;99.90;;;;;;5068978;28;19928;-77
2022/10/13 05:26:21;;;;;;;;;;;10.90;99.90;;;;;;5105698;27;20372;-80
2022/10/13 05:28:47;;;;;;;;;;;10.90;99.90;;;;;;5074567;28;20324;-78
2022/10/13 05:31:14;;;;;;;;;;;10.90;99.90;;;;;;5109176;28;20007;-77
2022/10/13 05:33:40;;;;;;;;;;;10.90;99.90;;;;;;5087842;28;19924;-77
2022/10/13 05:36:07;;;;;;;;;;;10.90;99.90;;;;;;5110138;27;20601;-77
2022/10/13 05:38:32;;;;;;;;;;;10.90;99.90;;;;;;5108391;27;19934;-77
2022/10/13 05:41:02;;;;;;;;;;;10.80;99.90;;;;;;5088782;28;19932;-77
2022/10/13 05:43:29;;;;;;;;;;;10.90;99.90;;;;;;5099130;27;20015;-75
2022/10/13 05:45:55;;;;;;;;;;;10.90;99.90;;;;;;5096232;28;20364;-75
2022/10/13 05:48:20;;;;;;;;;;;10.80;99.90;;;;;;5074783;28;20015;-77
2022/10/13 05:50:46;;;;;;;;;;;10.90;99.90;;;;;;5092432;28;19928;-77
2022/10/13 05:53:11;;;;;;;;;;;10.80;99.90;;;;;;5074844;28;19924;-75
2022/10/13 05:55:37;;;;;;;;;;;10.80;99.90;;;;;;5085692;28;19950;-80
2022/10/13 05:58:03;;;;;;;;;;;10.70;99.90;;;;;;5102839;28;19928;-76
2022/10/13 06:00:28;;;;;;;;;;;10.80;99.90;;;;;;5078804;28;19925;-77
2022/10/13 06:02:58;;;;;;;;;;;10.80;99.90;;;;;;5078881;28;19924;-77
2022/10/13 06:05:24;;;;;;;;;;;10.80;99.90;;;;;;5106240;27;20015;-74
2022/10/13 06:07:50;;;;;;;;;;;10.80;99.90;;;;;;5062502;28;19927;-78
2022/10/13 06:10:16;;;;;;;;;;;10.80;99.90;;;;;;5069597;28;20440;-76
2022/10/13 06:12:42;;;;;;;;;;;10.80;99.90;;;;;;5083090;28;19924;-76
2022/10/13 06:15:07;;;;;;;;;;;10.80;99.90;;;;;;5064083;28;19928;-77
2022/10/13 06:17:37;;;;;;;;;;;10.80;99.90;;;;;;5098770;27;19931;-78
2022/10/13 06:20:04;;;;;;;;;;;10.80;99.90;;;;;;5061903;28;19931;-75
2022/10/13 06:22:31;;;;;;;;;;;10.90;99.90;;;;;;5059617;28;20020;-77
2022/10/13 06:24:57;;;;;;;;;;;10.80;99.90;;;;;;5051861;28;19928;-79
2022/10/13 06:27:22;;;;;;;;;;;10.90;99.90;;;;;;5062000;28;19928;-77
2022/10/13 06:29:48;;;;;;;;;;;10.90;99.90;;;;;;5092363;28;19956;-78
2022/10/13 06:32:13;;;;;;;;;;;10.90;99.90;;;;;;5060043;28;19987;-78
2022/10/13 06:34:39;;;;;;;;;;;10.90;99.90;;;;;;5059737;28;19977;-74
2022/10/13 06:37:05;;;;;;;;;;;10.90;99.90;;;;;;5095932;28;19929;-75
2022/10/13 06:39:31;;;;;;;;;;;11.00;99.90;;;;;;5060217;28;20368;-74
2022/10/13 06:41:56;;;;;;;;;;;11.00;99.90;;;;;;5061342;28;19932;-74
2022/10/13 06:44:22;;;;;;;;;;;11.10;99.90;;;;;;5100688;28;19935;-74
2022/10/13 06:46:47;;;;;;;;;;;11.10;99.90;;;;;;5052947;28;20019;-77
2022/10/13 06:49:13;;;;;;;;;;;11.00;99.90;;;;;;5104557;28;19925;-74
2022/10/13 06:51:39;;;;;;;;;;;11.10;99.90;;;;;;5071505;28;19931;-76
2022/10/13 06:54:04;;;;;;;;;;;11.10;99.90;;;;;;5070898;28;20139;-72
2022/10/13 06:56:30;;;;;;;;;;;11.10;99.90;;;;;;5071385;28;19932;-76
2022/10/13 06:58:55;;;;;;;;;;;11.10;99.90;;;;;;5069632;28;19924;-76
2022/10/13 07:01:21;;;;;;;;;;;11.20;99.90;;;;;;5071986;28;19975;-76
2022/10/13 07:03:47;;;;;;;;;;;11.20;99.90;;;;;;5070367;28;19924;-76
2022/10/13 07:06:13;;;;;;;;;;;11.20;99.90;;;;;;5071333;28;19931;-79
2022/10/13 07:08:38;;;;;;;;;;;11.30;99.90;;;;;;5070148;28;19925;-76
2022/10/13 07:11:05;;;;;;;;;;;11.30;99.90;;;;;;5070788;28;19929;-76
2022/10/13 07:13:30;;;;;;;;;;;11.40;99.90;;;;;;5070138;28;19925;-75
2022/10/13 07:15:56;;;;;;;;;;;11.50;99.90;;;;;;5103041;28;20014;-78
2022/10/13 07:18:21;;;;;;;;;;;11.50;99.90;;;;;;5068200;28;19931;-74
2022/10/13 07:20:47;;;;;;;;;;;11.60;99.90;;;;;;5071313;28;20292;-76
2022/10/13 07:23:13;;;;;;;;;;;11.60;99.90;;;;;;5102270;28;19971;-79
2022/10/13 07:25:38;;;;;;;;;;;11.60;99.90;;;;;;5103429;28;20372;-77
2022/10/13 07:28:04;;;;;;;;;;;11.70;99.90;;;;;;5061322;28;19924;-77
2022/10/13 07:30:29;;;;;;;;;;;11.70;99.90;;;;;;5053533;28;20295;-77
2022/10/13 07:32:55;;;;;;;;;;;11.80;99.90;;;;;;5065351;28;19989;-76
2022/10/13 07:35:21;;;;;;;;;;;11.80;99.90;;;;;;5087478;28;20365;-83
2022/10/13 07:37:46;;;;;;;;;;;11.80;99.90;;;;;;5068557;28;20020;-79
2022/10/13 07:40:12;;;;;;;;;;;11.90;99.90;;;;;;5085983;28;19928;-76
2022/10/13 07:42:37;;;;;;;;;;;11.90;99.90;;;;;;5070904;28;19929;-78
2022/10/13 07:45:03;;;;;;;;;;;12.00;99.90;;;;;;5103569;28;20018;-75
2022/10/13 07:47:29;;;;;;;;;;;12.00;99.90;;;;;;5079449;28;20051;-74
2022/10/13 07:49:54;;;;;;;;;;;12.00;99.90;;;;;;5080398;28;19933;-74
2022/10/13 07:52:20;;;;;;;;;;;12.10;99.90;;;;;;5064992;28;20021;-74
2022/10/13 07:54:46;;;;;;;;;;;12.10;99.90;;;;;;5073363;28;19924;-75
2022/10/13 07:57:11;;;;;;;;;;;12.20;99.90;;;;;;5073508;28;19932;-74
2022/10/13 07:59:37;;;;;;;;;;;12.30;99.90;;;;;;5073646;28;19935;-73
2022/10/13 08:02:02;;;;;;;;;;;12.30;99.90;;;;;;5106533;28;19928;-76
2022/10/13 08:04:32;;;;;;;;;;;12.30;99.90;;;;;;5073821;28;19924;-75
2022/10/13 08:06:57;;;;;;;;;;;12.40;99.90;;;;;;5074097;28;19928;-74
2022/10/13 08:09:24;;;;;;;;;;;12.50;99.90;;;;;;5073901;28;20396;-75
2022/10/13 08:11:50;;;;;;;;;;;12.50;99.90;;;;;;5074051;28;19928;-74
2022/10/13 08:14:15;;;;;;;;;;;12.60;99.90;;;;;;5071940;28;19935;-75
2022/10/13 08:16:44;;;;;;;;;;;12.60;99.90;;;;;;5103147;28;19946;-77
2022/10/13 08:19:14;;;;;;;;;;;12.70;99.90;;;;;;5106900;28;20019;-74
2022/10/13 08:21:40;;;;;;;;;;;12.70;99.90;;;;;;5072958;28;20506;-75
2022/10/13 08:24:06;;;;;;;;;;;12.80;99.90;;;;;;5084902;28;20370;-78
2022/10/13 08:26:32;;;;;;;;;;;12.80;99.90;;;;;;5108033;28;19931;-77
2022/10/13 08:28:57;;;;;;;;;;;12.80;99.90;;;;;;5118422;27;19928;-77
2022/10/13 08:31:23;;;;;;;;;;;12.90;99.90;;;;;;5090010;28;19950;-79
2022/10/13 08:33:50;;;;;;;;;;;12.90;99.90;;;;;;5081538;28;20016;-77
2022/10/13 08:36:16;;;;;;;;;;;12.90;99.90;;;;;;5101082;28;19928;-78
2022/10/13 08:38:42;;;;;;;;;;;13.00;99.90;;;;;;5088677;28;19924;-77
2022/10/13 08:41:16;;;;;;;;;;;13.00;99.90;;;;;;5111222;27;20874;-81
2022/10/13 08:43:44;;;;;;;;;;;13.10;99.90;;;;;;5077371;28;20306;-80
2022/10/13 08:46:11;;;;;;;;;;;13.10;99.90;;;;;;5097301;28;20299;-77
2022/10/13 08:48:38;;;;;;;;;;;13.10;99.90;;;;;;5067665;28;19969;-79
2022/10/13 08:51:05;;;;;;;;;;;13.20;99.90;;;;;;5101695;27;20428;-76
2022/10/13 08:53:35;;;;;;;;;;;13.20;99.90;;;;;;5071983;28;19924;-75
2022/10/13 08:56:21;;;;;;;;;;;13.30;99.90;;;;;;5099157;27;20258;-76
2022/10/13 08:58:48;;;;;;;;;;;13.30;99.90;;;;;;5076776;28;19981;-77
2022/10/13 09:01:23;;;;;;;;;;;13.40;99.90;;;;;;5082077;28;19925;-77
2022/10/13 09:03:54;;;;;;;;;;;13.40;99.90;;;;;;5071272;28;20408;-75
2022/10/13 09:06:20;;;;;;;;;;;13.50;99.90;;;;;;5090161;28;19924;-75
2022/10/13 09:08:53;;;;;;;;;;;13.40;99.90;;;;;;5056607;28;19929;-76
2022/10/13 09:11:19;;;;;;;;;;;13.40;99.90;;;;;;5074416;28;20283;-76
2022/10/13 09:13:45;;;;;;;;;;;13.50;99.90;;;;;;5110131;27;19928;-76
2022/10/13 09:16:10;;;;;;;;;;;13.40;99.90;;;;;;5079002;28;19975;-79
2022/10/13 09:18:37;;;;;;;;;;;13.50;99.90;;;;;;5090786;28;19957;-79
2022/10/13 09:21:20;;;;;;;;;;;13.50;99.90;;;;;;5074753;28;19935;-77
2022/10/13 09:23:49;;;;;;;;;;;13.50;99.90;;;;;;5086108;28;19992;-76
2022/10/13 09:26:24;;;;;;;;;;;13.50;99.90;;;;;;5081608;28;19928;-75
2022/10/13 09:28:50;;;;;;;;;;;13.50;99.90;;;;;;5061780;28;20022;-76
2022/10/13 09:31:19;;;;;;;;;;;13.50;99.90;;;;;;5075530;28;19928;-78
2022/10/13 09:33:45;;;;;;;;;;;13.50;99.90;;;;;;5092595;28;19924;-76
2022/10/13 09:36:14;;;;;;;;;;;13.50;99.90;;;;;;5078129;28;19949;-80
2022/10/13 09:38:43;;;;;;;;;;;13.50;99.90;;;;;;5081323;28;20015;-76
2022/10/13 09:41:14;;;;;;;;;;;13.50;99.90;;;;;;5072093;28;20482;-76
2022/10/13 09:43:46;;;;;;;;;;;13.50;99.90;;;;;;5109305;28;20007;-76
2022/10/13 09:46:20;;;;;;;;;;;13.60;99.90;;;;;;5074027;28;19925;-76
2022/10/13 09:48:53;;;;;;;;;;;13.60;99.90;;;;;;5092741;28;19932;-76
2022/10/13 09:51:44;;;;;;;;;;;13.60;99.90;;;;;;5074738;28;19986;-78
2022/10/13 09:54:26;;;;;;;;;;;13.60;99.90;;;;;;5089786;28;20368;-76
2022/10/13 09:56:57;;;;;;;;;;;13.70;99.90;;;;;;5080077;28;19924;-76
2022/10/13 09:59:30;;;;;;;;;;;13.80;99.90;;;;;;5092821;28;19979;-77
2022/10/13 10:01:56;;;;;;;;;;;13.80;99.90;;;;;;5089355;28;19935;-77
2022/10/13 10:04:30;;;;;;;;;;;13.90;99.90;;;;;;5092786;28;20003;-77
2022/10/13 10:06:56;;;;;;;;;;;13.90;99.90;;;;;;5086129;28;20303;-78
2022/10/13 10:09:32;;;;;;;;;;;14.00;99.90;;;;;;5071120;28;19924;-76
2022/10/13 10:11:58;;;;;;;;;;;14.10;99.90;;;;;;5092324;28;19924;-75
2022/10/13 10:14:25;;;;;;;;;;;14.10;99.90;;;;;;5093105;28;19931;-76
2022/10/13 10:17:03;;;;;;;;;;;14.10;99.90;;;;;;5075652;28;19931;-76
2022/10/13 10:19:48;;;;;;;;;;;14.20;99.90;;;;;;5101464;27;20435;-76
2022/10/13 10:22:23;;;;;;;;;;;14.20;99.90;;;;;;5084914;28;19986;-76
2022/10/13 10:25:00;;;;;;;;;;;14.30;99.90;;;;;;5091279;28;19980;-76
2022/10/13 10:27:33;;;;;;;;;;;14.30;99.90;;;;;;5091918;28;19928;-76
2022/10/13 10:30:05;;;;;;;;;;;14.40;99.90;;;;;;5088420;28;19930;-76
2022/10/13 10:32:39;;;;;;;;;;;14.40;99.90;;;;;;5074659;28;19924;-76
2022/10/13 10:35:10;;;;;;;;;;;14.40;99.90;;;;;;5109902;27;20524;-76
2022/10/13 10:37:43;;;;;;;;;;;14.40;99.90;;;;;;5116538;27;20019;-78
2022/10/13 10:40:11;;;;;;;;;;;14.40;99.90;;;;;;5052412;28;19925;-82
2022/10/13 10:42:40;;;;;;;;;;;14.50;99.90;;;;;;5107639;28;19990;-76
2022/10/13 10:45:15;;;;;;;;;;;14.50;99.90;;;;;;5118474;27;19928;-77
2022/10/13 10:47:43;;;;;;;;;;;14.50;99.90;;;;;;5121702;27;20009;-76
2022/10/13 10:50:13;;;;;;;;;;;14.50;99.90;;;;;;5085627;28;19925;-79
2022/10/13 10:52:39;;;;;;;;;;;14.50;99.90;;;;;;5090210;28;19924;-76
2022/10/13 10:55:19;;;;;;;;;;;14.50;99.90;;;;;;5114374;27;19928;-75
2022/10/13 10:58:04;;;;;;;;;;;14.50;99.90;;;;;;5107626;27;19928;-76
2022/10/13 11:00:36;;;;;;;;;;;14.60;99.90;;;;;;5073161;28;19924;-76
2022/10/13 11:03:01;;;;;;;;;;;14.60;99.90;;;;;;5089353;28;19931;-75
2022/10/13 11:05:50;;;;;;;;;;;14.70;99.90;;;;;;5090246;28;20003;-75
2022/10/13 11:08:25;;;;;;;;;;;14.80;99.90;;;;;;5059926;28;19928;-77
2022/10/13 11:11:11;;;;;;;;;;;14.80;99.90;;;;;;5117495;27;19977;-76
2022/10/13 11:13:49;;;;;;;;;;;14.90;99.90;;;;;;5073723;28;19924;-76
2022/10/13 11:16:29;;;;;;;;;;;15.00;99.90;;;;;;5071224;28;19924;-78
2022/10/13 11:19:04;;;;;;;;;;;15.00;99.90;;;;;;5077364;28;19981;-77
2022/10/13 11:21:48;;;;;;;;;;;15.10;99.90;;;;;;5064788;28;19954;-77
2022/10/13 11:24:32;;;;;;;;;;;15.00;99.90;;;;;;5085890;28;20468;-79
2022/10/13 11:27:07;;;;;;;;;;;15.00;99.90;;;;;;5099893;28;19924;-79
2022/10/13 11:29:50;;;;;;;;;;;15.10;99.90;;;;;;5105715;28;19950;-78
2022/10/13 11:34:59;;;;;;;;;;;15.10;99.90;;;;;;5109127;28;20366;-76
2022/10/13 11:37:31;;;;;;;;;;;15.10;99.90;;;;;;5093605;28;19975;-80
2022/10/13 11:40:13;;;;;;;;;;;15.20;99.90;;;;;;5071811;28;20019;-78
2022/10/13 11:42:46;;;;;;;;;;;15.20;99.90;;;;;;5072737;28;20272;-82
2022/10/13 11:45:26;;;;;;;;;;;15.40;99.90;;;;;;5062212;28;19931;-79
2022/10/13 11:47:55;;;;;;;;;;;15.60;99.90;;;;;;5095947;28;19931;-79
2022/10/13 11:50:27;;;;;;;;;;;15.70;99.90;;;;;;5093137;28;19935;-78
2022/10/13 11:53:11;;;;;;;;;;;15.70;99.90;;;;;;5081423;28;20634;-78
2022/10/13 11:55:49;;;;;;;;;;;15.80;99.90;;;;;;5082666;28;20781;-79
2022/10/13 11:58:19;;;;;;;;;;;15.80;99.90;;;;;;5090066;28;20369;-78
2022/10/13 12:00:49;;;;;;;;;;;15.80;99.90;;;;;;5064511;28;19928;-77
2022/10/13 12:03:22;;;;;;;;;;;15.70;99.90;;;;;;5073795;28;20409;-77
2022/10/13 12:05:48;;;;;;;;;;;15.70;99.90;;;;;;5067439;28;20026;-78
2022/10/13 12:08:14;;;;;;;;;;;15.70;99.90;;;;;;5113803;28;20461;-78
2022/10/13 12:10:40;;;;;;;;;;;15.70;99.90;;;;;;5073097;28;19934;-80
2022/10/13 12:13:06;;;;;;;;;;;15.70;99.90;;;;;;5082784;28;20192;-78
2022/10/13 12:15:36;;;;;;;;;;;15.70;99.90;;;;;;5115879;28;19931;-77
2022/10/13 12:18:17;;;;;;;;;;;15.80;99.90;;;;;;5082861;28;19924;-78
2022/10/13 12:20:50;;;;;;;;;;;15.90;99.90;;;;;;5082440;28;19928;-77
2022/10/13 12:23:16;;;;;;;;;;;16.10;99.90;;;;;;5112510;28;20023;-76
2022/10/13 12:25:45;;;;;;;;;;;16.30;99.90;;;;;;5087934;28;19924;-78
2022/10/13 12:28:14;;;;;;;;;;;16.60;99.90;;;;;;5108181;28;19924;-78
2022/10/13 12:30:40;;;;;;;;;;;16.70;99.90;;;;;;5072511;28;19928;-79
2022/10/13 12:33:18;;;;;;;;;;;16.70;99.90;;;;;;5091698;28;20464;-77
2022/10/13 12:35:43;;;;;;;;;;;16.60;99.90;;;;;;5054244;28;21275;-78
2022/10/13 12:38:14;;;;;;;;;;;16.40;99.90;;;;;;5091482;28;19950;-78
2022/10/13 12:40:40;;;;;;;;;;;16.30;99.90;;;;;;5121011;27;19931;-78
2022/10/13 12:43:05;;;;;;;;;;;16.10;99.90;;;;;;5076104;28;19932;-78
2022/10/13 12:45:32;;;;;;;;;;;16.00;99.90;;;;;;5071247;28;19972;-78
2022/10/13 12:47:58;;;;;;;;;;;16.00;99.90;;;;;;5128320;27;20252;-80
2022/10/13 12:50:26;;;;;;;;;;;15.90;99.90;;;;;;5066504;28;19931;-76
2022/10/13 12:53:01;;;;;;;;;;;15.80;99.90;;;;;;5058448;28;19928;-76
2022/10/13 12:55:27;;;;;;;;;;;15.80;99.90;;;;;;5109649;27;19973;-78
2022/10/13 12:57:53;;;;;;;;;;;15.70;99.90;;;;;;5070331;28;20011;-77
2022/10/13 13:00:21;;;;;;;;;;;15.70;99.90;;;;;;5100275;28;20003;-77
2022/10/13 13:02:51;;;;;;;;;;;15.80;99.90;;;;;;5056879;28;19982;-83
2022/10/13 13:05:32;;;;;;;;;;;15.80;99.90;;;;;;5113071;27;19928;-78
2022/10/13 13:07:58;;;;;;;;;;;16.00;99.90;;;;;;5107862;27;19934;-78
2022/10/13 13:10:23;;;;;;;;;;;16.20;99.90;;;;;;5076282;28;19924;-77
2022/10/13 13:12:50;;;;;;;;;;;16.30;99.90;;;;;;5117804;27;20322;-77
2022/10/13 13:15:36;;;;;;;;;;;16.50;99.90;;;;;;5094903;28;19970;-78
2022/10/13 13:18:20;;;;;;;;;;;16.40;99.90;;;;;;5118953;27;20383;-77
2022/10/13 13:20:46;;;;;;;;;;;16.40;99.90;;;;;;5065778;28;20384;-80
2022/10/13 13:23:12;;;;;;;;;;;16.20;99.90;;;;;;5123278;27;19930;-77
2022/10/13 13:25:37;;;;;;;;;;;16.20;99.90;;;;;;5125929;27;19928;-78
2022/10/13 13:28:08;;;;;;;;;;;16.10;99.90;;;;;;5105248;28;19927;-77
2022/10/13 13:30:34;;;;;;;;;;;16.10;99.90;;;;;;5112613;27;19967;-77
2022/10/13 13:32:59;;;;;;;;;;;16.10;99.90;;;;;;5120077;27;20367;-78
2022/10/13 13:35:25;;;;;;;;;;;16.00;99.90;;;;;;5083014;28;19937;-78
2022/10/13 13:37:51;;;;;;;;;;;15.90;99.90;;;;;;5087249;28;19964;-81
2022/10/13 13:40:24;;;;;;;;;;;16.00;99.90;;;;;;5121781;27;19924;-77
2022/10/13 13:42:50;;;;;;;;;;;15.90;99.90;;;;;;5113721;27;20313;-80
2022/10/13 13:45:18;;;;;;;;;;;15.90;99.90;;;;;;5073998;28;19924;-79
2022/10/13 13:47:43;;;;;;;;;;;15.80;99.90;;;;;;5118085;27;19924;-77
2022/10/13 13:50:14;;;;;;;;;;;15.70;99.90;;;;;;5111277;27;20329;-77
2022/10/13 13:52:40;;;;;;;;;;;15.70;99.90;;;;;;5039290;28;19924;-77
2022/10/13 13:55:06;;;;;;;;;;;15.80;99.90;;;;;;5119455;27;19935;-77
2022/10/13 13:57:32;;;;;;;;;;;15.70;99.90;;;;;;5078435;28;19930;-80
2022/10/13 13:59:57;;;;;;;;;;;15.70;99.90;;;;;;5082816;28;19935;-77
2022/10/13 14:02:23;;;;;;;;;;;15.60;99.90;;;;;;5083141;28;19943;-77
2022/10/13 14:04:48;;;;;;;;;;;15.60;99.90;;;;;;5084440;28;19980;-77
2022/10/13 14:07:15;;;;;;;;;;;15.60;99.90;;;;;;5118543;27;19960;-77
2022/10/13 14:09:41;;;;;;;;;;;15.60;99.90;;;;;;5073962;28;20006;-77
2022/10/13 14:12:06;;;;;;;;;;;15.50;99.90;;;;;;5093355;28;20011;-77
2022/10/13 14:14:32;;;;;;;;;;;15.50;99.90;;;;;;5110653;27;19928;-78
2022/10/13 14:17:02;;;;;;;;;;;15.50;99.90;;;;;;5119558;27;20324;-77
2022/10/13 14:19:28;;;;;;;;;;;15.40;99.90;;;;;;5062186;28;20002;-78
2022/10/13 14:21:53;;;;;;;;;;;15.40;99.90;;;;;;5122383;27;20066;-77
2022/10/13 14:24:19;;;;;;;;;;;15.40;99.90;;;;;;5099215;28;19924;-77
2022/10/13 14:26:45;;;;;;;;;;;15.40;99.90;;;;;;5070325;28;20479;-77